createdAt,value
2019-04-10T00:01:58.088Z,41.49
2019-04-10T00:07:10.367Z,41.81
2019-04-10T00:12:05.311Z,41.85
2019-04-10T00:17:07.152Z,41.70
2019-04-10T00:22:09.688Z,41.75
2019-04-10T00:27:12.459Z,42.02
2019-04-10T00:32:14.460Z,41.83
2019-04-10T00:37:23.955Z,41.91
2019-04-10T00:42:20.967Z,41.78
2019-04-10T00:47:23.279Z,42.02
2019-04-10T00:52:25.233Z,41.98
2019-04-10T00:57:27.524Z,41.99
2019-04-10T01:02:29.193Z,41.98
2019-04-10T01:07:36.662Z,42.09
2019-04-10T01:12:34.318Z,42.10
2019-04-10T01:17:36.040Z,42.38
2019-04-10T01:22:37.671Z,42.37
2019-04-10T01:27:41.000Z,42.15
2019-04-10T01:32:43.872Z,42.08
2019-04-10T01:37:51.823Z,42.53
2019-04-10T01:43:02.394Z,42.05
2019-04-10T01:47:53.297Z,42.05
2019-04-10T01:52:55.541Z,42.19
2019-04-10T01:57:58.858Z,42.54
2019-04-10T02:03:01.389Z,42.09
2019-04-10T02:08:09.003Z,42.24
2019-04-10T02:13:07.396Z,42.59
2019-04-10T02:18:09.057Z,42.32
2019-04-10T02:23:10.689Z,42.31
2019-04-10T02:28:13.076Z,42.26
2019-04-10T02:33:15.896Z,42.56
2019-04-10T02:38:35.790Z,42.54
2019-04-10T02:43:21.282Z,42.63
2019-04-10T02:48:23.497Z,42.60
2019-04-10T02:53:25.648Z,42.58
2019-04-10T02:58:27.590Z,42.43
2019-04-10T03:03:29.986Z,42.53
2019-04-10T03:08:44.782Z,42.71
2019-04-10T03:13:35.886Z,42.50
2019-04-10T03:18:37.648Z,42.55
2019-04-10T03:23:40.344Z,42.64
2019-04-10T03:28:43.004Z,42.82
2019-04-10T03:33:50.510Z,42.83
2019-04-10T03:38:58.601Z,42.89
2019-04-10T03:43:56.441Z,42.65
2019-04-10T03:48:58.161Z,42.48
2019-04-10T03:53:59.802Z,43.20
2019-04-10T03:59:02.240Z,43.48
2019-04-10T04:04:04.955Z,42.80
2019-04-10T04:09:10.911Z,43.16
2019-04-10T04:14:10.353Z,40.34
2019-04-10T04:19:12.184Z,36.47
2019-04-10T04:24:13.831Z,40.10
2019-04-10T04:29:16.426Z,40.38
2019-04-10T04:34:18.644Z,40.99
2019-04-10T04:39:26.412Z,41.13
2019-04-10T04:44:24.200Z,40.98
2019-04-10T04:49:26.409Z,41.62
2019-04-10T04:54:28.888Z,43.10
2019-04-10T04:59:30.725Z,41.92
2019-04-10T05:04:33.666Z,42.60
2019-04-10T05:09:38.763Z,42.59
2019-04-10T05:14:39.907Z,43.35
2019-04-10T05:19:42.906Z,42.71
2019-04-10T05:24:44.694Z,42.31
2019-04-10T05:29:47.141Z,42.16
2019-04-10T05:34:48.842Z,42.32
2019-04-10T05:39:52.181Z,42.57
2019-04-10T05:44:54.448Z,42.41
2019-04-10T05:49:56.158Z,42.16
2019-04-10T05:54:57.862Z,41.83
2019-04-10T06:00:00.495Z,41.67
2019-04-10T06:05:04.244Z,41.35
2019-04-10T06:10:09.027Z,41.94
2019-04-10T06:15:10.737Z,41.47
2019-04-10T06:20:14.156Z,41.44
2019-04-10T06:25:18.832Z,41.66
2019-04-10T06:30:20.601Z,41.63
2019-04-10T06:35:22.217Z,41.64
2019-04-10T06:40:25.824Z,41.47
2019-04-10T06:45:28.003Z,41.66
2019-04-10T06:50:30.486Z,41.55
2019-04-10T06:55:33.255Z,41.33
2019-04-10T07:00:35.220Z,41.48
2019-04-10T07:05:46.899Z,40.69
2019-04-10T07:10:49.905Z,40.87
2019-04-10T07:15:46.609Z,41.00
2019-04-10T07:20:48.980Z,40.77
2019-04-10T07:25:51.979Z,41.04
2019-04-10T07:30:56.834Z,40.67
2019-04-10T07:35:57.868Z,41.02
2019-04-10T07:40:59.531Z,41.02
2019-04-10T07:46:01.207Z,40.43
2019-04-10T07:51:02.947Z,41.01
2019-04-10T07:56:09.127Z,40.68
2019-04-10T08:01:08.572Z,40.45
2019-04-10T08:06:11.083Z,41.05
2019-04-10T08:11:13.967Z,41.20
2019-04-10T08:16:16.961Z,40.45
2019-04-10T08:21:19.782Z,40.28
2019-04-10T08:26:22.714Z,40.26
2019-04-10T08:31:25.318Z,40.80
2019-04-10T08:36:28.164Z,40.66
2019-04-10T08:41:30.035Z,40.54
2019-04-10T08:46:31.602Z,41.63
2019-04-10T08:51:33.236Z,41.37
2019-04-10T08:56:35.047Z,41.49
2019-04-10T09:01:37.643Z,41.53
2019-04-10T09:06:39.844Z,41.56
2019-04-10T09:11:43.045Z,41.48
2019-04-10T09:16:44.879Z,40.75
2019-04-10T09:21:46.520Z,39.95
2019-04-10T09:26:48.684Z,40.31
2019-04-10T09:31:50.530Z,40.48
2019-04-10T09:36:52.090Z,40.18
2019-04-10T09:41:54.344Z,40.25
2019-04-10T09:46:56.158Z,40.71
2019-04-10T09:51:58.623Z,40.01
2019-04-10T09:57:01.258Z,40.19
2019-04-10T10:02:03.210Z,40.27
2019-04-10T10:07:05.601Z,39.99
2019-04-10T10:12:07.445Z,40.03
2019-04-10T10:17:09.109Z,40.10
2019-04-10T10:22:10.825Z,39.62
2019-04-10T10:27:13.550Z,39.68
2019-04-10T10:32:15.292Z,39.76
2019-04-10T10:37:16.871Z,40.35
2019-04-10T10:42:19.321Z,40.49
2019-04-10T10:47:22.231Z,39.95
2019-04-10T10:52:24.065Z,41.12
2019-04-10T10:57:26.896Z,40.78
2019-04-10T11:02:29.659Z,40.92
2019-04-10T11:07:31.496Z,40.70
2019-04-10T11:12:34.166Z,40.74
2019-04-10T11:17:36.288Z,40.80
2019-04-10T11:22:39.730Z,40.90
2019-04-10T11:27:42.569Z,41.15
2019-04-10T11:32:44.553Z,41.12
2019-04-10T11:37:49.648Z,40.98
2019-04-10T11:42:51.524Z,40.90
2019-04-10T11:47:53.459Z,41.03
2019-04-10T11:52:56.746Z,41.00
2019-04-10T11:57:59.964Z,40.99
2019-04-10T12:03:01.726Z,41.10
2019-04-10T12:13:08.175Z,40.91
2019-04-10T12:18:10.681Z,40.76
2019-04-10T12:23:12.680Z,40.90
2019-04-10T12:28:14.395Z,40.88
2019-04-10T12:33:17.111Z,40.85
2019-04-10T12:38:19.332Z,40.69
2019-04-10T12:43:21.041Z,40.72
2019-04-10T12:48:23.059Z,40.63
2019-04-10T12:53:24.915Z,40.79
2019-04-10T12:58:26.691Z,38.76
2019-04-10T13:03:29.429Z,39.46
2019-04-10T13:08:51.524Z,40.17
2019-04-10T13:13:35.830Z,40.45
2019-04-10T13:18:38.592Z,40.86
2019-04-10T13:23:41.217Z,40.69
2019-04-10T13:28:43.980Z,41.60
2019-04-10T13:33:45.597Z,40.78
2019-04-10T13:38:48.857Z,42.46
2019-04-10T13:43:52.532Z,41.79
2019-04-10T13:48:55.580Z,41.36
2019-04-10T13:53:58.455Z,43.55
2019-04-10T13:59:00.594Z,43.95
2019-04-10T14:04:02.961Z,44.68
2019-04-10T14:09:26.355Z,44.81
2019-04-10T14:14:16.221Z,44.66
2019-04-10T14:19:17.964Z,44.76
2019-04-10T14:24:20.078Z,45.12
2019-04-10T14:29:24.693Z,41.62
2019-04-10T14:34:28.406Z,42.71
2019-04-10T14:39:31.329Z,41.42
2019-04-10T14:44:33.348Z,42.94
2019-04-10T14:49:35.472Z,43.14
2019-04-10T14:54:37.596Z,44.77
2019-04-10T14:59:40.002Z,43.45
2019-04-10T15:04:41.812Z,43.33
2019-04-10T15:09:45.239Z,44.60
2019-04-10T15:14:47.831Z,46.18
2019-04-10T15:19:51.892Z,46.08
2019-04-10T15:25:06.867Z,45.05
2019-04-10T15:30:08.672Z,47.06
2019-04-10T15:35:10.511Z,48.34
2019-04-10T15:40:19.916Z,50.93
2019-04-10T15:45:16.451Z,54.11
2019-04-10T15:50:18.143Z,54.62
2019-04-10T15:55:20.102Z,54.00
2019-04-10T16:00:23.193Z,51.08
2019-04-10T16:05:25.801Z,50.85
2019-04-10T16:10:30.943Z,50.19
2019-04-10T16:15:34.658Z,50.12
2019-04-10T16:20:36.930Z,50.01
2019-04-10T16:25:40.581Z,50.03
2019-04-10T16:30:43.224Z,50.00
2019-04-10T16:35:46.286Z,51.44
2019-04-10T16:40:48.140Z,51.27
2019-04-10T16:45:50.980Z,49.74
2019-04-10T16:50:53.889Z,51.11
2019-04-10T16:55:56.920Z,49.16
2019-04-10T17:00:58.964Z,50.59
2019-04-10T17:06:01.899Z,49.22
2019-04-10T17:11:05.324Z,49.40
2019-04-10T17:16:07.349Z,41.66
2019-04-10T17:21:09.110Z,41.04
2019-04-10T17:26:12.829Z,40.81
2019-04-10T17:31:16.235Z,42.33
2019-04-10T17:36:18.915Z,42.36
2019-04-10T17:41:21.860Z,42.96
2019-04-10T17:46:24.888Z,43.72
2019-04-10T17:51:28.299Z,43.94
2019-04-10T17:56:30.525Z,44.13
2019-04-10T18:01:33.100Z,44.14
2019-04-10T18:06:35.302Z,44.17
2019-04-10T18:11:37.447Z,44.32
2019-04-10T18:16:40.134Z,44.83
2019-04-10T18:21:44.171Z,44.64
2019-04-10T18:26:45.716Z,45.29
2019-04-10T18:31:47.424Z,45.71
2019-04-10T18:36:50.741Z,45.61
2019-04-10T18:41:52.665Z,45.70
2019-04-10T18:46:54.396Z,45.75
2019-04-10T18:51:56.337Z,45.83
2019-04-10T18:56:58.136Z,44.54
2019-04-10T19:02:18.703Z,41.81
2019-04-10T19:07:21.241Z,40.02
2019-04-10T19:12:23.014Z,41.74
2019-04-10T19:17:24.659Z,42.42
2019-04-10T19:22:26.458Z,42.94
2019-04-10T19:27:29.232Z,43.16
2019-04-10T19:32:33.307Z,43.43
2019-04-10T19:37:36.724Z,43.46
2019-04-10T19:42:39.745Z,43.44
2019-04-10T19:47:42.248Z,43.38
2019-04-10T19:52:44.633Z,43.42
2019-04-10T19:57:47.743Z,43.38
2019-04-10T20:02:49.649Z,43.29
2019-04-10T20:07:51.434Z,43.28
2019-04-10T20:12:53.295Z,43.30
2019-04-10T20:17:55.077Z,43.21
2019-04-10T20:22:56.842Z,43.25
2019-04-10T20:27:58.623Z,43.30
2019-04-10T20:33:00.734Z,43.14
2019-04-10T20:38:03.087Z,43.48
2019-04-10T20:43:04.966Z,43.62
2019-04-10T20:48:06.642Z,43.73
2019-04-10T20:53:09.538Z,43.63
2019-04-10T20:58:11.384Z,43.61
2019-04-10T21:03:13.519Z,43.46
2019-04-10T21:08:15.740Z,43.43
2019-04-10T21:13:17.542Z,43.46
2019-04-10T21:18:19.491Z,43.46
2019-04-10T21:23:22.326Z,43.60
2019-04-10T21:28:23.991Z,43.57
2019-04-10T21:33:28.513Z,43.52
2019-04-10T21:38:30.297Z,43.36
2019-04-10T21:43:31.858Z,43.30
2019-04-10T21:48:33.648Z,43.29
2019-04-10T21:53:35.975Z,43.26
2019-04-10T21:58:38.937Z,43.21
2019-04-10T22:03:41.475Z,43.18
2019-04-10T22:08:49.745Z,43.19
2019-04-10T22:13:52.680Z,43.18
2019-04-10T22:18:54.625Z,43.17
2019-04-10T22:23:56.687Z,43.20
2019-04-10T22:28:58.482Z,43.16
2019-04-10T22:34:00.821Z,43.12
2019-04-10T22:39:04.659Z,43.15
2019-04-10T22:44:08.289Z,43.13
2019-04-10T22:49:10.403Z,43.11
2019-04-10T22:54:13.417Z,43.16
2019-04-10T22:59:16.128Z,43.11
2019-04-10T23:04:17.955Z,43.10
2019-04-10T23:09:20.208Z,43.15
2019-04-10T23:14:22.751Z,43.09
2019-04-10T23:19:25.733Z,43.06
2019-04-10T23:24:27.751Z,43.08
2019-04-10T23:29:30.868Z,43.05
2019-04-10T23:34:32.801Z,43.06
2019-04-10T23:39:34.497Z,43.08
2019-04-10T23:44:37.391Z,43.05
2019-04-10T23:49:39.565Z,43.03
2019-04-10T23:54:41.621Z,43.02
2019-04-10T23:59:43.359Z,43.01
